Time;durP1;ratioP1;P1;durP2;ratioP2;P2;SDS_P1;SDS_P2;PMS_P1;PMS_P2;Temp;Humidity;BMP_temperature;BMP_pressure;BME280_temperature;BME280_humidity;BME280_pressure;Samples;Min_cycle;Max_cycle;Signal;HPM_P1;HPM_P2
2021/01/29 00:02:13;;;;;;;0.10;0.00;;;;;;;8.21;100.00;97567.81;5013369;28;20049;-78
2021/01/29 00:05:17;;;;;;;0.00;0.00;;;;;;;8.20;100.00;97563.53;5013417;28;20509;-78
2021/01/29 00:08:43;;;;;;;0.00;0.00;;;;;;;8.18;100.00;97571.63;5013719;28;20506;-79
2021/01/29 00:11:52;;;;;;;0.00;0.00;;;;;;;8.13;100.00;97566.88;5013639;28;20065;-78
2021/01/29 00:14:56;;;;;;;0.00;0.00;;;;;;;8.11;100.00;97577.72;5013496;28;20513;-78
2021/01/29 00:18:13;;;;;;;0.00;0.00;;;;;;;8.12;100.00;97587.56;5013788;28;20056;-78
2021/01/29 00:21:26;;;;;;;0.10;0.00;;;;;;;8.09;100.00;97577.47;5013596;28;20079;-77
2021/01/29 00:24:33;;;;;;;0.00;0.00;;;;;;;8.05;100.00;97568.69;5013801;28;20053;-78
2021/01/29 00:27:47;;;;;;;0.00;0.00;;;;;;;7.99;100.00;97562.44;5001398;28;20041;-78
2021/01/29 00:31:09;;;;;;;0.00;0.00;;;;;;;8.00;100.00;97569.47;5013584;28;20421;-77
2021/01/29 00:34:20;;;;;;;0.10;0.00;;;;;;;7.99;100.00;97574.25;5001183;28;20052;-77
2021/01/29 00:37:24;;;;;;;0.10;0.00;;;;;;;7.98;100.00;97567.22;5007858;28;20521;-78
2021/01/29 00:40:30;;;;;;;0.10;0.00;;;;;;;7.99;100.00;97577.03;5013610;28;20053;-78
2021/01/29 00:43:42;;;;;;;0.00;0.00;;;;;;;7.94;100.00;97580.59;5013636;28;20049;-78
2021/01/29 00:46:51;;;;;;;0.00;0.00;;;;;;;7.94;100.00;97572.28;5023836;28;20057;-78
2021/01/29 00:50:17;;;;;;;0.00;0.00;;;;;;;7.94;100.00;97571.53;5023559;28;20057;-78
2021/01/29 00:53:23;;;;;;;0.00;0.00;;;;;;;7.92;100.00;97576.84;5013336;28;20057;-79
2021/01/29 00:56:30;;;;;;;0.10;0.00;;;;;;;7.91;100.00;97584.38;5023986;28;20509;-75
2021/01/29 00:59:34;;;;;;;0.00;0.00;;;;;;;7.87;100.00;97583.91;5024413;28;20057;-76
2021/01/29 01:02:39;;;;;;;0.00;0.00;;;;;;;7.90;100.00;97579.38;5012495;28;20516;-75
2021/01/29 01:05:48;;;;;;;0.05;0.00;;;;;;;7.84;100.00;97581.41;5012933;28;20049;-76
2021/01/29 01:08:56;;;;;;;0.10;0.00;;;;;;;7.85;100.00;97582.91;5012526;28;20398;-75
2021/01/29 01:12:25;;;;;;;;;;;;;;;;;;;;;
2021/01/29 01:15:37;;;;;;;0.00;0.00;;;;;;;7.81;100.00;97579.66;5022220;28;20061;-78
2021/01/29 01:18:48;;;;;;;0.00;0.00;;;;;;;7.82;100.00;97586.72;5011754;28;20053;-79
2021/01/29 01:22:03;;;;;;;0.00;0.00;;;;;;;7.83;100.00;97572.34;5012409;28;20056;-79
2021/01/29 01:25:31;;;;;;;0.00;0.00;;;;;;;7.84;100.00;97584.91;5000463;28;20512;-78
2021/01/29 01:28:56;;;;;;;;;;;;;;;;;;;;;
2021/01/29 01:32:11;;;;;;;0.10;0.00;;;;;;;7.82;100.00;97587.44;5012642;28;20049;-78
2021/01/29 01:36:13;;;;;;;0.00;0.00;;;;;;;7.84;100.00;97586.97;5012345;28;20509;-80
2021/01/29 01:39:43;;;;;;;0.00;0.00;;;;;;;7.81;100.00;97596.28;5012606;28;20061;-78
2021/01/29 01:42:46;;;;;;;0.00;0.00;;;;;;;7.81;100.00;97601.81;5012308;28;20553;-78
2021/01/29 01:45:59;;;;;;;0.00;0.00;;;;;;;7.80;100.00;97598.28;5013879;28;20044;-78
2021/01/29 01:49:07;;;;;;;0.10;0.00;;;;;;;7.77;100.00;97606.88;5016503;28;20045;-78
2021/01/29 01:52:25;;;;;;;0.00;0.00;;;;;;;7.71;100.00;97598.59;5016529;28;20045;-78
2021/01/29 01:55:34;;;;;;;0.10;0.00;;;;;;;7.68;100.00;97607.19;5016180;28;20069;-76
2021/01/29 01:58:38;;;;;;;0.00;0.00;;;;;;;7.69;100.00;97611.47;5015248;28;20045;-75
2021/01/29 02:01:43;;;;;;;0.00;0.00;;;;;;;7.65;100.00;97614.47;5016465;28;20117;-76
2021/01/29 02:04:46;;;;;;;0.05;0.00;;;;;;;7.59;100.00;97617.28;5014888;28;20052;-76
2021/01/29 02:07:58;;;;;;;0.00;0.00;;;;;;;7.51;100.00;97624.59;5015816;28;20064;-76
2021/01/29 02:11:02;;;;;;;0.00;0.00;;;;;;;7.43;100.00;97620.84;5016058;28;20057;-76
2021/01/29 02:14:05;;;;;;;0.00;0.00;;;;;;;7.35;100.00;97625.44;5016159;28;20045;-76
2021/01/29 02:17:34;;;;;;;0.00;0.00;;;;;;;7.23;100.00;97623.97;5016123;28;20406;-75
2021/01/29 02:21:21;;;;;;;0.00;0.00;;;;;;;7.06;100.00;97617.69;5015843;28;20410;-76
2021/01/29 02:24:57;;;;;;;0.10;0.00;;;;;;;6.89;100.00;97614.19;5015537;28;20048;-76
2021/01/29 02:28:01;;;;;;;0.10;0.10;;;;;;;6.74;100.00;97605.41;4979033;28;20406;-75
2021/01/29 02:31:41;;;;;;;0.00;0.00;;;;;;;6.70;100.00;97613.19;5015879;28;20049;-75
2021/01/29 02:34:57;;;;;;;0.10;0.00;;;;;;;6.59;100.00;97613.19;5015450;28;20045;-76
2021/01/29 02:38:38;;;;;;;0.10;0.10;;;;;;;6.50;100.00;97621.75;5033876;28;20057;-76
2021/01/29 02:42:19;;;;;;;0.10;0.10;;;;;;;6.32;100.00;97616.72;5035341;28;20044;-75
2021/01/29 02:45:30;;;;;;;0.10;0.00;;;;;;;6.20;100.00;97609.66;5035491;28;20056;-76
2021/01/29 02:48:44;;;;;;;0.00;0.00;;;;;;;6.15;100.00;97613.19;5035193;28;20044;-75
2021/01/29 02:52:22;;;;;;;0.10;0.10;;;;;;;6.07;100.00;97610.91;5034848;28;20041;-75
2021/01/29 02:55:47;;;;;;;0.10;0.10;;;;;;;6.01;100.00;97610.16;5034432;28;20516;-75
2021/01/29 02:58:50;;;;;;;0.10;0.00;;;;;;;6.02;100.00;97605.38;5033644;28;20398;-75
2021/01/29 03:01:59;;;;;;;0.10;0.00;;;;;;;6.01;100.00;97603.84;5055018;28;20055;-75
2021/01/29 03:05:06;;;;;;;0.00;0.00;;;;;;;6.01;100.00;97592.81;5042785;28;20381;-75
2021/01/29 03:08:18;;;;;;;0.10;0.00;;;;;;;6.06;100.00;97603.84;5054695;28;20048;-75
2021/01/29 03:11:48;;;;;;;0.10;0.00;;;;;;;6.04;100.00;97603.59;5054763;28;20047;-75
2021/01/29 03:15:09;;;;;;;0.00;0.00;;;;;;;6.06;100.00;97594.84;5055048;28;20112;-75
2021/01/29 03:18:29;;;;;;;0.10;0.00;;;;;;;6.09;100.00;97594.56;5054812;28;20052;-75
2021/01/29 03:21:44;;;;;;;0.10;0.00;;;;;;;6.09;100.00;97589.06;5054655;28;20052;-75
2021/01/29 03:24:53;;;;;;;0.10;0.00;;;;;;;6.16;100.00;97589.81;5054478;28;20044;-76
2021/01/29 03:28:05;;;;;;;0.10;0.00;;;;;;;6.17;100.00;97592.09;5054234;28;20044;-75
2021/01/29 03:31:12;;;;;;;0.10;0.00;;;;;;;6.19;100.00;97595.09;5054725;28;20413;-75
2021/01/29 03:34:24;;;;;;;0.10;0.10;;;;;;;6.18;100.00;97585.28;5054206;28;20059;-75
2021/01/29 03:37:40;;;;;;;0.10;0.08;;;;;;;6.20;100.00;97582.03;5039621;28;20414;-75
2021/01/29 03:40:53;;;;;;;0.10;0.00;;;;;;;6.19;100.00;97575.00;5034088;28;20048;-75
2021/01/29 03:44:33;;;;;;;0.10;0.00;;;;;;;6.16;100.00;97576.00;5034047;28;20052;-75
2021/01/29 03:47:53;;;;;;;0.10;0.00;;;;;;;6.13;100.00;97579.78;5025564;28;20121;-75
2021/01/29 03:51:05;;;;;;;0.10;0.00;;;;;;;6.19;100.00;97580.53;5034380;28;20052;-76
2021/01/29 03:54:27;;;;;;;0.10;0.00;;;;;;;6.19;100.00;97573.00;5032897;28;20052;-75
2021/01/29 03:57:38;;;;;;;0.10;0.00;;;;;;;6.19;100.00;97575.00;5033223;28;20052;-76
2021/01/29 04:01:00;;;;;;;0.10;0.10;;;;;;;6.11;100.00;97571.97;5019533;28;20398;-76
2021/01/29 04:04:07;;;;;;;0.10;0.00;;;;;;;6.00;100.00;97575.47;5013981;28;20049;-76
2021/01/29 04:07:28;;;;;;;0.00;0.00;;;;;;;5.89;100.00;97569.91;5013824;28;20048;-75
2021/01/29 04:10:32;;;;;;;0.10;0.00;;;;;;;5.80;100.00;97572.16;5012766;28;20053;-76
2021/01/29 04:13:45;;;;;;;0.10;0.10;;;;;;;5.69;100.00;97570.13;5013780;28;20049;-76
2021/01/29 04:16:51;;;;;;;0.10;0.00;;;;;;;5.59;100.00;97579.84;5013702;28;20048;-75
2021/01/29 04:20:02;;;;;;;0.10;0.00;;;;;;;5.46;100.00;97576.81;5013454;28;20048;-75
2021/01/29 04:23:11;;;;;;;0.10;0.00;;;;;;;5.33;100.00;97576.50;5013629;28;20402;-75
2021/01/29 04:26:19;;;;;;;0.10;0.10;;;;;;;5.24;100.00;97573.97;5013488;28;20056;-76
2021/01/29 04:29:29;;;;;;;0.00;0.00;;;;;;;5.19;100.00;97566.41;5013598;28;20053;-76
2021/01/29 04:32:38;;;;;;;0.10;0.00;;;;;;;5.18;100.00;97567.66;5012946;28;20049;-75
2021/01/29 04:35:42;;;;;;;0.10;0.00;;;;;;;5.20;100.00;97570.66;5001212;28;20049;-76
2021/01/29 04:38:56;;;;;;;0.10;0.00;;;;;;;5.26;100.00;97560.44;5032881;28;20052;-76
2021/01/29 04:42:46;;;;;;;0.00;0.00;;;;;;;5.30;100.00;97558.94;5033095;28;20049;-75
2021/01/29 04:46:06;;;;;;;0.10;0.10;;;;;;;5.34;100.00;97558.69;5032534;28;20080;-76
2021/01/29 04:49:15;;;;;;;0.10;0.00;;;;;;;5.36;100.00;97556.97;5032858;28;20048;-76
2021/01/29 04:52:40;;;;;;;0.10;0.10;;;;;;;5.36;100.00;97554.19;5032954;28;20045;-76
2021/01/29 04:55:56;;;;;;;0.10;0.10;;;;;;;5.29;100.00;97554.66;5032709;28;20056;-76
2021/01/29 04:59:18;;;;;;;0.20;0.15;;;;;;;5.23;100.00;97553.13;5032794;28;20057;-75
2021/01/29 05:02:38;;;;;;;0.10;0.00;;;;;;;5.21;100.00;97545.38;5013165;28;20494;-76
2021/01/29 05:06:16;;;;;;;0.10;0.10;;;;;;;5.22;100.00;97552.38;5012539;28;20053;-76
2021/01/29 05:10:01;;;;;;;0.00;0.00;;;;;;;5.25;100.00;97545.88;5013121;28;20049;-78
2021/01/29 05:13:25;;;;;;;0.00;0.00;;;;;;;5.39;100.00;97563.50;5012869;28;20513;-78
2021/01/29 05:17:02;;;;;;;0.10;0.10;;;;;;;5.60;100.00;97556.53;5012773;28;20053;-78
2021/01/29 05:20:05;;;;;;;0.10;0.10;;;;;;;5.73;100.00;97562.34;4996622;28;20053;-78
2021/01/29 05:23:44;;;;;;;0.10;0.00;;;;;;;5.87;100.00;97563.38;5012846;28;20041;-78
2021/01/29 05:27:19;;;;;;;0.10;0.10;;;;;;;6.03;100.00;97563.44;5012380;28;20067;-78
2021/01/29 05:30:51;;;;;;;0.10;0.10;;;;;;;6.15;100.00;97574.50;5012591;28;20053;-79
2021/01/29 05:33:54;;;;;;;0.10;0.10;;;;;;;6.16;100.00;97564.94;5012375;28;20064;-79
2021/01/29 05:37:10;;;;;;;0.10;0.10;;;;;;;6.17;100.00;97577.50;5002828;28;20054;-78
2021/01/29 05:40:38;;;;;;;0.00;0.00;;;;;;;6.25;100.00;97561.94;4992669;28;20518;-76
2021/01/29 05:44:09;;;;;;;0.00;0.00;;;;;;;6.32;100.00;97569.72;4992596;28;20078;-76
2021/01/29 05:47:42;;;;;;;0.07;0.00;;;;;;;6.41;100.00;97569.50;4992777;28;20427;-76
2021/01/29 05:50:56;;;;;;;0.10;0.00;;;;;;;6.47;100.00;97573.00;4981280;28;20053;-76
2021/01/29 05:54:27;;;;;;;0.00;0.00;;;;;;;6.46;100.00;97571.47;4992807;28;20049;-76
2021/01/29 05:57:40;;;;;;;0.00;0.00;;;;;;;6.52;100.00;97569.50;4992878;28;20057;-76
2021/01/29 06:00:52;;;;;;;0.00;0.00;;;;;;;6.51;100.00;97562.44;5006404;28;20045;-77
2021/01/29 06:04:17;;;;;;;0.00;0.00;;;;;;;6.47;100.00;97567.47;5011507;28;20133;-76
2021/01/29 06:08:06;;;;;;;0.00;0.00;;;;;;;6.52;100.00;97558.44;5011752;28;20057;-76
2021/01/29 06:11:40;;;;;;;0.10;0.00;;;;;;;6.47;100.00;97561.94;5011183;28;20060;-76
2021/01/29 06:15:21;;;;;;;0.00;0.00;;;;;;;6.44;100.00;97563.69;5011417;28;20045;-77
2021/01/29 06:18:33;;;;;;;0.08;0.00;;;;;;;6.33;100.00;97569.22;5011595;28;20057;-76
2021/01/29 06:22:00;;;;;;;0.00;0.00;;;;;;;6.35;100.00;97571.47;5011628;28;20056;-77
2021/01/29 06:25:41;;;;;;;0.10;0.00;;;;;;;6.22;100.00;97573.97;5011870;28;20545;-77
2021/01/29 06:29:02;;;;;;;0.10;0.00;;;;;;;6.17;100.00;97577.50;5011552;28;20402;-76
2021/01/29 06:32:18;;;;;;;0.10;0.10;;;;;;;6.09;100.00;97583.53;5013909;28;20061;-76
2021/01/29 06:35:46;;;;;;;0.10;0.10;;;;;;;6.09;100.00;97575.25;5015680;28;20497;-76
2021/01/29 06:39:19;;;;;;;0.00;0.00;;;;;;;6.06;100.00;97578.25;5015455;28;20505;-77
2021/01/29 06:42:38;;;;;;;0.08;0.00;;;;;;;5.98;100.00;97577.97;5014111;28;20049;-76
2021/01/29 06:46:07;;;;;;;0.10;0.00;;;;;;;5.94;100.00;97577.47;5015363;28;20049;-76
2021/01/29 06:49:19;;;;;;;0.10;0.00;;;;;;;5.95;100.00;97579.00;5015386;28;20040;-79
2021/01/29 06:52:32;;;;;;;0.00;0.00;;;;;;;5.90;100.00;97576.22;5015275;28;20422;-80
2021/01/29 06:55:51;;;;;;;0.10;0.10;;;;;;;5.88;100.00;97573.94;5014709;28;20053;-80
2021/01/29 06:59:07;;;;;;;0.10;0.00;;;;;;;5.74;100.00;97574.16;5024741;28;20568;-81
2021/01/29 07:02:30;;;;;;;0.10;0.00;;;;;;;5.56;100.00;97583.63;5011582;28;20049;-82
2021/01/29 07:05:45;;;;;;;0.10;0.00;;;;;;;5.53;100.00;97584.63;5014887;28;20412;-81
2021/01/29 07:09:26;;;;;;;0.10;0.00;;;;;;;5.50;100.00;97599.41;5013124;28;20049;-81
2021/01/29 07:12:48;;;;;;;0.10;0.00;;;;;;;5.52;100.00;97605.19;5014570;28;20509;-81
2021/01/29 07:16:01;;;;;;;0.10;0.00;;;;;;;5.52;100.00;97605.19;5013923;28;20552;-81
2021/01/29 07:19:18;;;;;;;0.10;0.00;;;;;;;5.52;100.00;97613.47;5001984;28;20053;-81
2021/01/29 07:22:31;;;;;;;0.03;0.00;;;;;;;5.51;100.00;97605.69;5002265;28;20053;-82
2021/01/29 07:25:40;;;;;;;0.10;0.00;;;;;;;5.41;100.00;97607.91;5014848;28;20054;-81
2021/01/29 07:28:58;;;;;;;0.10;0.00;;;;;;;5.27;100.00;97614.34;5014288;28;20049;-81
2021/01/29 07:32:36;;;;;;;0.10;0.00;;;;;;;5.29;100.00;97607.09;5014684;28;20077;-83
2021/01/29 07:35:52;;;;;;;0.10;0.00;;;;;;;5.35;100.00;97604.34;5014684;28;20044;-81
2021/01/29 07:39:01;;;;;;;0.10;0.00;;;;;;;5.39;100.00;97618.69;5015033;28;20402;-82
2021/01/29 07:42:35;;;;;;;0.10;0.00;;;;;;;5.34;100.00;97614.66;5012361;28;20054;-82
2021/01/29 07:45:47;;;;;;;0.10;0.10;;;;;;;5.28;100.00;97613.13;5011129;28;20056;-81
2021/01/29 07:49:32;;;;;;;0.10;0.00;;;;;;;5.19;100.00;97618.84;5006279;28;20437;-81
2021/01/29 07:52:43;;;;;;;0.10;0.10;;;;;;;5.06;100.00;97616.50;4935352;29;20079;-78
2021/01/29 07:56:08;;;;;;;0.10;0.03;;;;;;;4.95;100.00;97634.97;4936390;28;20059;-81
2021/01/29 07:59:43;;;;;;;0.10;0.10;;;;;;;4.89;100.00;97631.44;4982719;28;20053;-81
2021/01/29 08:03:06;;;;;;;0.00;0.00;;;;;;;4.86;100.00;97640.69;5013547;28;20049;-81
2021/01/29 08:06:18;;;;;;;0.10;0.10;;;;;;;4.88;100.00;97649.22;5012697;28;20053;-81
2021/01/29 08:09:28;;;;;;;;;;;;;;;4.88;100.00;97654.72;5013070;28;20402;-81
2021/01/29 08:12:42;;;;;;;0.10;0.10;;;;;;;4.91;100.00;97662.03;5013365;28;20281;-79
2021/01/29 08:15:55;;;;;;;0.10;0.10;;;;;;;4.95;100.00;97665.31;5000973;28;20410;-80
2021/01/29 08:19:13;;;;;;;0.10;0.10;;;;;;;5.02;100.00;97670.38;5011882;28;20045;-80
2021/01/29 08:22:43;;;;;;;0.10;0.00;;;;;;;5.09;100.00;97665.16;5013259;28;20418;-81
2021/01/29 08:26:19;;;;;;;0.10;0.00;;;;;;;5.21;100.00;97674.28;5013417;28;20053;-80
2021/01/29 08:29:28;;;;;;;0.10;0.00;;;;;;;5.35;100.00;97681.63;4976757;28;20058;-80
2021/01/29 08:32:49;;;;;;;0.10;0.00;;;;;;;5.48;100.00;97690.22;5013406;28;20057;-80
2021/01/29 08:36:32;;;;;;;0.10;0.00;;;;;;;5.58;100.00;97693.56;5015156;28;20052;-80
2021/01/29 08:39:42;;;;;;;0.10;0.10;;;;;;;5.76;100.00;97706.97;5032767;28;20056;-79
2021/01/29 08:42:48;;;;;;;0.10;0.10;;;;;;;5.86;100.00;97703.50;5040630;28;20040;-79
2021/01/29 08:46:20;;;;;;;0.00;0.00;;;;;;;5.91;100.00;97716.56;5052897;28;20068;-80
2021/01/29 08:49:45;;;;;;;0.10;0.00;;;;;;;5.97;100.00;97714.63;5040249;28;20052;-80
2021/01/29 08:53:04;;;;;;;0.10;0.00;;;;;;;6.05;100.00;97714.88;5052368;28;20048;-80
2021/01/29 08:56:11;;;;;;;0.10;0.00;;;;;;;6.13;100.00;97716.66;5052531;28;20428;-81
2021/01/29 08:59:18;;;;;;;0.10;0.00;;;;;;;6.20;100.00;97729.25;5052482;28;20051;-79
2021/01/29 09:02:54;;;;;;;0.10;0.10;;;;;;;6.31;100.00;97729.28;5052314;28;20055;-80
2021/01/29 09:06:18;;;;;;;0.10;0.00;;;;;;;6.40;100.00;97717.25;5030489;28;20060;-80
2021/01/29 09:09:27;;;;;;;0.00;0.00;;;;;;;6.55;100.00;97728.84;5052831;28;20059;-78
2021/01/29 09:12:32;;;;;;;0.10;0.00;;;;;;;6.63;100.00;97729.84;5052054;28;20052;-80
2021/01/29 09:15:39;;;;;;;0.10;0.10;;;;;;;6.73;100.00;97733.91;5051982;28;20043;-81
2021/01/29 09:19:01;;;;;;;0.00;0.00;;;;;;;6.75;100.00;97742.44;5039718;28;20051;-81
2021/01/29 09:22:29;;;;;;;0.00;0.00;;;;;;;6.97;100.00;97748.00;5051993;28;20500;-82
2021/01/29 09:26:15;;;;;;;0.00;0.00;;;;;;;6.97;100.00;97756.31;5056812;28;20087;-80
2021/01/29 09:29:44;;;;;;;0.10;0.00;;;;;;;7.29;100.00;97768.66;5062340;28;20056;-78
2021/01/29 09:33:13;;;;;;;0.00;0.00;;;;;;;7.26;100.00;97775.19;5051739;28;20048;-78
2021/01/29 09:36:22;;;;;;;0.10;0.00;;;;;;;7.16;100.00;97785.00;5035513;28;20052;-78
2021/01/29 09:39:39;;;;;;;0.00;0.00;;;;;;;7.15;100.00;97797.31;5035528;28;20056;-79
2021/01/29 09:42:53;;;;;;;0.00;0.00;;;;;;;7.31;100.00;97799.34;5043260;28;20052;-80
2021/01/29 09:46:08;;;;;;;0.10;0.00;;;;;;;7.38;100.00;97809.94;5020274;28;20421;-78
2021/01/29 09:49:25;;;;;;;0.10;0.10;;;;;;;7.45;100.00;97820.47;5031823;28;20500;-80
2021/01/29 09:52:35;;;;;;;0.10;0.00;;;;;;;7.50;100.00;97822.50;5032432;28;20048;-79
2021/01/29 09:55:54;;;;;;;0.00;0.00;;;;;;;7.52;100.00;97831.06;5031569;28;20064;-77
2021/01/29 09:59:35;;;;;;;0.10;0.10;;;;;;;7.81;100.00;97851.19;5032283;28;20102;-79
2021/01/29 10:02:59;;;;;;;0.00;0.00;;;;;;;7.94;100.00;97848.66;5031732;28;20052;-78
2021/01/29 10:06:20;;;;;;;0.00;0.00;;;;;;;7.89;100.00;97852.94;5032229;28;20056;-79
2021/01/29 10:09:36;;;;;;;0.00;0.00;;;;;;;7.86;100.00;97858.75;5035590;28;20049;-78
2021/01/29 10:12:49;;;;;;;0.00;0.00;;;;;;;7.88;100.00;97872.84;5035765;28;20040;-79
2021/01/29 10:16:34;;;;;;;0.00;0.00;;;;;;;7.89;100.00;97868.81;5023676;28;20052;-79
2021/01/29 10:19:42;;;;;;;0.00;0.00;;;;;;;7.91;100.00;97877.38;5035461;28;20053;-79
2021/01/29 10:23:15;;;;;;;0.10;0.00;;;;;;;7.99;100.00;97878.41;5035429;28;20099;-79
2021/01/29 10:26:32;;;;;;;0.10;0.00;;;;;;;8.11;100.00;97871.56;5034077;28;20060;-79
2021/01/29 10:29:40;;;;;;;0.00;0.00;;;;;;;8.18;100.00;97884.91;5034748;28;20132;-77
2021/01/29 10:33:11;;;;;;;0.10;0.00;;;;;;;8.20;100.00;97896.25;5034994;28;20045;-78
2021/01/29 10:36:24;;;;;;;0.10;0.00;;;;;;;8.19;100.00;97886.41;5034706;28;20683;-79
2021/01/29 10:39:49;;;;;;;0.00;0.00;;;;;;;8.21;100.00;97889.41;5035337;28;20045;-78
2021/01/29 10:42:56;;;;;;;0.05;0.00;;;;;;;8.26;100.00;97903.31;5035123;28;20049;-78
2021/01/29 10:46:34;;;;;;;0.00;0.00;;;;;;;8.32;100.00;97906.06;5035155;28;20603;-78
2021/01/29 10:49:50;;;;;;;0.10;0.00;;;;;;;8.44;100.00;97915.88;5035125;28;20041;-78
2021/01/29 10:53:16;;;;;;;0.10;0.00;;;;;;;8.57;100.00;97921.66;5034974;28;20053;-78
2021/01/29 10:56:23;;;;;;;0.00;0.00;;;;;;;8.68;100.00;97924.41;5022750;28;20061;-79
2021/01/29 10:59:40;;;;;;;0.10;0.10;;;;;;;8.70;100.00;97919.09;5034938;28;20048;-77
2021/01/29 11:02:51;;;;;;;0.10;0.00;;;;;;;8.70;100.00;97930.19;5034898;28;20068;-77
2021/01/29 11:05:58;;;;;;;0.00;0.00;;;;;;;8.71;100.00;97942.78;5034709;28;20671;-76
2021/01/29 11:09:06;;;;;;;0.00;0.00;;;;;;;8.65;100.00;97950.38;5034824;28;20500;-78
2021/01/29 11:12:44;;;;;;;0.10;0.00;;;;;;;8.64;100.00;97956.44;5034680;28;20052;-77
2021/01/29 11:15:55;;;;;;;0.00;0.00;;;;;;;8.66;100.00;97963.00;5034732;28;20513;-78
2021/01/29 11:19:02;;;;;;;0.00;0.00;;;;;;;8.67;100.00;97970.06;5033630;28;20478;-79
2021/01/29 11:22:17;;;;;;;0.03;0.00;;;;;;;8.64;100.00;97982.16;5034271;28;20041;-78
2021/01/29 11:25:39;;;;;;;0.10;0.00;;;;;;;8.64;100.00;97987.69;5034446;28;20053;-78
2021/01/29 11:28:52;;;;;;;0.00;0.00;;;;;;;8.63;100.00;97988.97;5034573;28;20053;-76
2021/01/29 11:32:01;;;;;;;0.00;0.00;;;;;;;8.58;100.00;97995.28;5034344;28;20048;-75
2021/01/29 11:35:23;;;;;;;0.00;0.00;;;;;;;8.59;100.00;98002.34;5034088;28;20421;-76
2021/01/29 11:38:44;;;;;;;0.10;0.00;;;;;;;8.64;100.00;97982.16;5014609;28;20060;-74
2021/01/29 11:42:00;;;;;;;0.00;0.00;;;;;;;8.69;100.00;97998.03;5014207;28;20513;-74
2021/01/29 11:45:17;;;;;;;0.00;0.00;;;;;;;8.78;100.00;98003.31;5014624;28;20044;-75
2021/01/29 11:49:02;;;;;;;0.10;0.00;;;;;;;8.84;100.00;98009.63;5014584;28;20056;-77
2021/01/29 11:52:23;;;;;;;0.10;0.00;;;;;;;8.94;100.00;98010.09;5000449;28;20056;-76
2021/01/29 11:55:32;;;;;;;0.10;0.00;;;;;;;9.04;100.00;98014.88;5013955;28;20068;-75
2021/01/29 11:58:47;;;;;;;0.00;0.00;;;;;;;9.05;100.00;98010.81;5013583;28;20406;-75
2021/01/29 12:02:05;;;;;;;0.00;0.00;;;;;;;9.20;100.00;98021.63;5014028;28;20049;-74
2021/01/29 12:05:23;;;;;;;0.00;0.00;;;;;;;9.22;100.00;98021.13;5013590;28;20049;-74
2021/01/29 12:08:48;;;;;;;0.00;0.00;;;;;;;9.16;100.00;98041.31;5013900;28;20053;-76
2021/01/29 12:12:08;;;;;;;0.00;0.00;;;;;;;9.08;100.00;98054.22;5014042;28;20041;-75
2021/01/29 12:15:34;;;;;;;0.00;0.00;;;;;;;9.07;100.00;98061.03;5012658;28;20058;-77
2021/01/29 12:18:38;;;;;;;0.05;0.00;;;;;;;9.02;100.00;98070.16;5012429;28;20097;-77
2021/01/29 12:21:56;;;;;;;0.00;0.00;;;;;;;9.05;100.00;98060.78;5013491;28;20068;-78
2021/01/29 12:25:32;;;;;;;0.00;0.00;;;;;;;9.08;100.00;98070.88;5001731;28;20061;-77
2021/01/29 12:29:01;;;;;;;0.00;0.00;;;;;;;9.02;100.00;98080.50;5011872;28;20061;-78
2021/01/29 12:32:19;;;;;;;0.00;0.00;;;;;;;9.10;100.00;98073.16;5013520;28;20053;-78
2021/01/29 12:35:26;;;;;;;0.00;0.00;;;;;;;9.09;100.00;98077.19;5013561;28;20049;-78
2021/01/29 12:38:49;;;;;;;0.00;0.00;;;;;;;9.17;100.00;98078.19;5001067;28;20060;-77
2021/01/29 12:42:28;;;;;;;0.00;0.00;;;;;;;9.16;100.00;98077.41;5013050;28;20061;-81
2021/01/29 12:45:42;;;;;;;0.00;0.00;;;;;;;9.37;100.00;98085.44;4999210;28;20537;-80
2021/01/29 12:49:04;;;;;;;0.00;0.00;;;;;;;9.44;100.00;98073.81;5011471;28;20304;-81
2021/01/29 12:52:15;;;;;;;0.00;0.00;;;;;;;9.52;100.00;98066.44;5011330;28;20048;-78
2021/01/29 12:55:27;;;;;;;0.08;0.00;;;;;;;9.59;100.00;98063.91;5013096;28;20394;-78
2021/01/29 12:58:38;;;;;;;0.00;0.00;;;;;;;9.53;100.00;98071.50;5013138;28;20044;-78
2021/01/29 13:01:59;;;;;;;0.00;0.00;;;;;;;9.40;100.00;98073.31;5013167;28;20052;-78
2021/01/29 13:05:21;;;;;;;0.00;0.00;;;;;;;9.27;100.00;98079.41;5013252;28;20079;-78
2021/01/29 13:08:43;;;;;;;0.10;0.00;;;;;;;9.11;100.00;98091.34;5015825;28;20056;-78
2021/01/29 13:11:47;;;;;;;0.00;0.00;;;;;;;9.06;100.00;98098.41;5012603;28;20045;-78
2021/01/29 13:15:09;;;;;;;0.00;0.00;;;;;;;8.93;100.00;98109.28;5012801;28;20442;-78
2021/01/29 13:18:21;;;;;;;0.00;0.00;;;;;;;8.86;100.00;98109.78;5009857;28;20049;-79
2021/01/29 13:21:34;;;;;;;0.03;0.00;;;;;;;8.83;100.00;98121.16;5012048;28;20049;-79
2021/01/29 13:24:38;;;;;;;0.00;0.00;;;;;;;8.78;100.00;98122.66;5005080;28;20394;-79
2021/01/29 13:27:48;;;;;;;0.00;0.00;;;;;;;8.74;100.00;98124.94;5005629;28;20520;-78
2021/01/29 13:30:52;;;;;;;0.10;0.00;;;;;;;8.67;100.00;98119.13;5012267;28;20045;-79
2021/01/29 13:34:00;;;;;;;0.00;0.00;;;;;;;8.63;100.00;98116.63;5012439;28;20045;-79
2021/01/29 13:37:24;;;;;;;0.00;0.00;;;;;;;8.63;100.00;98121.41;5023684;28;20068;-80
2021/01/29 13:40:28;;;;;;;0.00;0.00;;;;;;;8.60;100.00;98117.63;5036188;28;20049;-78
2021/01/29 13:43:32;;;;;;;0.00;0.00;;;;;;;8.59;100.00;98116.13;5032286;28;20049;-78
2021/01/29 13:46:37;;;;;;;0.00;0.00;;;;;;;8.55;100.00;98107.28;5031521;28;20062;-78
2021/01/29 13:49:41;;;;;;;0.00;0.00;;;;;;;8.58;100.00;98103.50;5031920;28;20056;-78
2021/01/29 13:53:33;;;;;;;0.00;0.00;;;;;;;8.60;100.00;98098.19;5032778;28;20056;-78
2021/01/29 13:57:12;;;;;;;;;;;;;;;8.63;100.00;98105.53;5015628;28;20089;-79
2021/01/29 14:20:34;;;;;;;;;;;;;;;;;;;;;
2021/01/29 14:52:26;;;;;;;0.10;0.00;;;;;;;8.50;100.00;98149.66;4840470;29;20526;-80
2021/01/29 15:00:46;;;;;;;0.00;0.00;;;;;;;8.31;100.00;98137.53;4843641;29;20061;-79
2021/01/29 15:08:57;;;;;;;0.00;0.00;;;;;;;8.27;100.00;98145.34;4824976;29;20058;-78
2021/01/29 15:12:28;;;;;;;0.00;0.00;;;;;;;8.33;100.00;98148.88;4813475;29;20061;-83
2021/01/29 15:20:28;;;;;;;0.00;0.00;;;;;;;8.27;100.00;98164.75;4991047;28;20497;-78
2021/01/29 15:24:25;;;;;;;0.10;0.00;;;;;;;8.23;100.00;98155.84;5014600;28;20052;-78
2021/01/29 15:32:05;;;;;;;0.00;0.00;;;;;;;8.13;100.00;98160.91;5011261;28;20069;-78
2021/01/29 15:35:30;;;;;;;0.10;0.00;;;;;;;8.21;100.00;98169.47;5022765;28;20052;-80
2021/01/29 15:44:15;;;;;;;0.10;0.00;;;;;;;8.14;100.00;98167.94;5021748;28;20060;-79
2021/01/29 15:47:48;;;;;;;0.00;0.00;;;;;;;8.11;100.00;98170.97;5023056;28;20053;-81
2021/01/29 15:51:28;;;;;;;0.08;0.00;;;;;;;8.03;100.00;98172.72;5022971;28;20052;-81
2021/01/29 16:19:26;;;;;;;;;;;;;;;;;;;;;
2021/01/29 16:37:23;;;;;;;0.10;0.00;;;;;;;7.63;100.00;98218.13;4972129;28;20175;-79
2021/01/29 16:45:32;;;;;;;;;;;;;;;;;;;;;
2021/01/29 16:49:04;;;;;;;;;;;;;;;;;;;;;
2021/01/29 17:55:59;;;;;;;;;;;;;;;;;;;;;
2021/01/29 18:47:42;;;;;;;0.10;0.00;;;;;;;7.22;100.00;98382.94;5004453;28;20407;-79
2021/01/29 19:45:05;;;;;;;0.05;0.00;;;;;;;6.84;100.00;98397.91;4787679;29;20091;-76
2021/01/29 19:49:41;;;;;;;;;;;;;;;;;;;;;
2021/01/29 19:57:49;;;;;;;0.10;0.00;;;;;;;6.86;100.00;98395.41;4786359;29;20099;-79
2021/01/29 20:01:03;;;;;;;0.10;0.10;;;;;;;6.78;100.00;98402.59;4873184;29;20055;-78
2021/01/29 20:04:44;;;;;;;0.10;0.10;;;;;;;6.73;100.00;98408.84;4893232;29;21152;-77
2021/01/29 20:12:41;;;;;;;0.10;0.00;;;;;;;6.77;100.00;98403.84;5014261;28;20128;-77
2021/01/29 20:16:10;;;;;;;0.10;0.00;;;;;;;6.80;100.00;98413.94;5002104;28;20202;-77
2021/01/29 20:19:41;;;;;;;;;;;;;;;;;;;;;
2021/01/29 20:23:40;;;;;;;0.10;0.00;;;;;;;6.76;100.00;98428.00;5028359;28;20402;-77
2021/01/29 20:27:46;;;;;;;;;;;;;;;;;;;;;
2021/01/29 20:31:25;;;;;;;;;;;;;;;;;;;;;
2021/01/29 20:34:59;;;;;;;;;;;;;;;;;;;;;
2021/01/29 20:38:29;;;;;;;;;;;;;;;;;;;;;
2021/01/29 20:49:21;;;;;;;0.10;0.10;;;;;;;6.80;100.00;98422.25;4972054;28;20076;-78
2021/01/29 20:52:25;;;;;;;0.10;0.00;;;;;;;6.85;100.00;98432.63;4971816;28;20179;-77
2021/01/29 20:55:29;;;;;;;0.10;0.00;;;;;;;6.86;100.00;98439.69;5008696;28;20044;-78
2021/01/29 20:58:32;;;;;;;0.10;0.00;;;;;;;6.87;100.00;98438.44;5033060;28;20563;-77
2021/01/29 21:01:36;;;;;;;0.10;0.00;;;;;;;6.88;100.00;98437.19;5032797;28;20061;-77
2021/01/29 21:04:39;;;;;;;0.00;0.00;;;;;;;6.87;100.00;98432.91;5033023;28;20041;-77